Time;durP1;ratioP1;P1;durP2;ratioP2;P2;SDS_P1;SDS_P2;PMS_P1;PMS_P2;Temp;Humidity;BMP_temperature;BMP_pressure;BME280_temperature;BME280_humidity;BME280_pressure;Samples;Min_cycle;Max_cycle;Signal;HPM_P1;HPM_P2
2023/05/06 00:02:21;;;;;;;;;;;12.00;99.90;;;;;;5066821;27;20046;-76
2023/05/06 00:04:47;;;;;;;;;;;12.00;99.90;;;;;;5082689;28;19931;-76
2023/05/06 00:07:13;;;;;;;;;;;11.90;99.90;;;;;;5067496;28;20499;-76
2023/05/06 00:09:38;;;;;;;;;;;11.80;99.90;;;;;;5087118;28;20433;-76
2023/05/06 00:12:04;;;;;;;;;;;11.70;99.90;;;;;;5083515;27;19927;-76
2023/05/06 00:14:30;;;;;;;;;;;11.70;99.90;;;;;;5087534;28;19968;-76
2023/05/06 00:16:55;;;;;;;;;;;11.70;99.90;;;;;;5056950;28;19931;-75
2023/05/06 00:19:21;;;;;;;;;;;11.60;99.90;;;;;;5082916;27;20630;-76
2023/05/06 00:21:47;;;;;;;;;;;11.60;99.90;;;;;;5072764;27;20009;-76
2023/05/06 00:24:12;;;;;;;;;;;11.50;99.90;;;;;;5080758;28;19927;-76
2023/05/06 00:26:38;;;;;;;;;;;11.60;99.90;;;;;;5098930;27;20358;-75
2023/05/06 00:29:03;;;;;;;;;;;11.70;99.90;;;;;;5102239;27;20041;-75
2023/05/06 00:31:29;;;;;;;;;;;11.80;99.90;;;;;;5101348;27;20004;-75
2023/05/06 00:33:54;;;;;;;;;;;11.70;99.90;;;;;;5109969;27;21237;-75
2023/05/06 00:36:20;;;;;;;;;;;11.60;99.90;;;;;;5106253;27;19928;-75
2023/05/06 00:38:45;;;;;;;;;;;11.60;99.90;;;;;;5085238;27;19934;-75
2023/05/06 00:41:11;;;;;;;;;;;11.40;99.90;;;;;;5087683;27;19931;-76
2023/05/06 00:43:36;;;;;;;;;;;11.40;99.90;;;;;;5082361;27;20010;-76
2023/05/06 00:46:02;;;;;;;;;;;11.40;99.90;;;;;;5103367;27;19924;-76
2023/05/06 00:48:28;;;;;;;;;;;11.30;99.90;;;;;;5103741;27;19980;-76
2023/05/06 00:50:54;;;;;;;;;;;11.20;99.90;;;;;;5104063;27;19927;-75
2023/05/06 00:53:20;;;;;;;;;;;11.20;99.90;;;;;;5103758;27;19923;-76
2023/05/06 00:55:47;;;;;;;;;;;11.20;99.90;;;;;;5098122;27;20539;-75
2023/05/06 00:58:13;;;;;;;;;;;11.20;99.90;;;;;;5096067;27;20434;-75
2023/05/06 01:00:39;;;;;;;;;;;11.10;99.90;;;;;;5101342;27;19939;-76
2023/05/06 01:03:04;;;;;;;;;;;11.10;99.90;;;;;;5101157;27;19927;-76
2023/05/06 01:05:34;;;;;;;;;;;11.10;99.90;;;;;;5099199;27;19934;-76
2023/05/06 01:08:11;;;;;;;;;;;11.00;99.90;;;;;;5105021;27;20368;-76
2023/05/06 01:10:37;;;;;;;;;;;11.10;99.90;;;;;;5104308;27;19932;-75
2023/05/06 01:13:08;;;;;;;;;;;11.00;99.90;;;;;;5101055;27;19932;-75
2023/05/06 01:15:40;;;;;;;;;;;11.10;99.90;;;;;;5087502;27;19934;-76
2023/05/06 01:18:10;;;;;;;;;;;11.10;99.90;;;;;;5102683;27;20451;-75
2023/05/06 01:20:37;;;;;;;;;;;11.20;99.90;;;;;;5105430;27;19923;-75
2023/05/06 01:23:06;;;;;;;;;;;11.10;99.90;;;;;;5084855;27;19939;-75
2023/05/06 01:25:32;;;;;;;;;;;11.00;99.90;;;;;;5101652;27;19953;-75
2023/05/06 01:27:58;;;;;;;;;;;11.00;99.90;;;;;;5084744;27;19987;-75
2023/05/06 01:30:29;;;;;;;;;;;11.00;99.90;;;;;;5086324;27;19935;-75
2023/05/06 01:33:10;;;;;;;;;;;11.00;99.90;;;;;;5108645;27;20797;-75
2023/05/06 01:35:42;;;;;;;;;;;11.10;99.90;;;;;;5102642;27;20018;-76
2023/05/06 01:38:21;;;;;;;;;;;11.20;99.90;;;;;;5100495;27;19923;-75
2023/05/06 01:40:48;;;;;;;;;;;11.30;99.90;;;;;;5099317;27;20375;-75
2023/05/06 01:43:15;;;;;;;;;;;11.20;99.90;;;;;;5083009;27;19931;-75
2023/05/06 01:45:41;;;;;;;;;;;11.20;99.90;;;;;;5084550;27;19924;-75
2023/05/06 01:48:07;;;;;;;;;;;11.40;99.90;;;;;;5106336;27;20010;-76
2023/05/06 01:50:33;;;;;;;;;;;11.20;99.90;;;;;;5104613;27;19927;-75
2023/05/06 01:53:00;;;;;;;;;;;11.10;99.90;;;;;;5106104;27;19928;-75
2023/05/06 01:55:25;;;;;;;;;;;11.20;99.90;;;;;;5081648;27;19934;-75
2023/05/06 01:57:52;;;;;;;;;;;10.90;99.90;;;;;;5109625;27;19927;-75
2023/05/06 02:00:17;;;;;;;;;;;10.90;99.90;;;;;;5118619;27;19973;-75
2023/05/06 02:02:43;;;;;;;;;;;11.00;99.90;;;;;;5113733;27;19923;-75
2023/05/06 02:05:09;;;;;;;;;;;10.90;99.90;;;;;;5111126;27;19968;-75
2023/05/06 02:07:40;;;;;;;;;;;10.70;99.90;;;;;;5116871;27;19976;-75
2023/05/06 02:10:07;;;;;;;;;;;10.80;99.90;;;;;;5120060;27;19935;-75
2023/05/06 02:12:33;;;;;;;;;;;10.60;99.90;;;;;;5118235;27;20018;-75
2023/05/06 02:14:58;;;;;;;;;;;10.50;99.90;;;;;;5118783;27;20030;-76
2023/05/06 02:17:24;;;;;;;;;;;10.50;99.90;;;;;;5116121;27;19982;-75
2023/05/06 02:19:49;;;;;;;;;;;10.40;99.90;;;;;;5113462;27;19927;-75
2023/05/06 02:22:15;;;;;;;;;;;10.30;99.90;;;;;;5096452;27;19931;-75
2023/05/06 02:24:41;;;;;;;;;;;10.30;99.90;;;;;;5096741;27;19976;-75
2023/05/06 02:27:06;;;;;;;;;;;10.30;99.90;;;;;;5092914;27;19954;-75
2023/05/06 02:29:32;;;;;;;;;;;10.30;99.90;;;;;;5096144;27;20395;-75
2023/05/06 02:31:58;;;;;;;;;;;10.10;99.90;;;;;;5112674;27;19938;-75
2023/05/06 02:34:23;;;;;;;;;;;10.00;99.90;;;;;;5118780;27;19927;-75
2023/05/06 02:36:49;;;;;;;;;;;9.70;99.90;;;;;;5108850;27;19966;-76
2023/05/06 02:39:14;;;;;;;;;;;9.70;99.90;;;;;;5093332;27;19928;-75
2023/05/06 02:41:40;;;;;;;;;;;9.60;99.90;;;;;;5116198;27;19954;-75
2023/05/06 02:44:05;;;;;;;;;;;9.70;99.90;;;;;;5098194;27;20042;-75
2023/05/06 02:46:31;;;;;;;;;;;9.70;99.90;;;;;;5113673;27;19980;-75
2023/05/06 02:48:57;;;;;;;;;;;9.70;99.90;;;;;;5116004;27;19973;-75
2023/05/06 02:51:23;;;;;;;;;;;9.70;99.90;;;;;;5111704;27;19927;-75
2023/05/06 02:53:48;;;;;;;;;;;9.80;99.90;;;;;;5115495;27;19946;-75
2023/05/06 02:56:14;;;;;;;;;;;9.90;99.90;;;;;;5116408;27;19938;-75
2023/05/06 02:58:39;;;;;;;;;;;9.90;99.90;;;;;;5117573;27;19923;-75
2023/05/06 03:01:05;;;;;;;;;;;9.70;99.90;;;;;;5115045;27;20010;-75
2023/05/06 03:03:31;;;;;;;;;;;9.50;99.90;;;;;;5094048;27;19978;-75
2023/05/06 03:05:57;;;;;;;;;;;9.60;99.90;;;;;;5115007;27;19932;-75
2023/05/06 03:08:23;;;;;;;;;;;9.60;99.90;;;;;;5120275;27;19941;-75
2023/05/06 03:10:49;;;;;;;;;;;9.80;99.90;;;;;;5105688;27;19932;-75
2023/05/06 03:13:15;;;;;;;;;;;9.80;99.90;;;;;;5116941;27;19923;-75
2023/05/06 03:15:40;;;;;;;;;;;9.80;99.90;;;;;;5101103;27;19954;-75
2023/05/06 03:18:06;;;;;;;;;;;9.70;99.90;;;;;;5117752;27;20036;-75
2023/05/06 03:20:31;;;;;;;;;;;9.70;99.90;;;;;;5115330;27;19984;-75
2023/05/06 03:22:57;;;;;;;;;;;9.70;99.90;;;;;;5114688;27;19935;-75
2023/05/06 03:25:23;;;;;;;;;;;9.60;99.90;;;;;;5099430;27;19927;-75
2023/05/06 03:27:48;;;;;;;;;;;9.30;99.90;;;;;;5111289;27;20417;-75
2023/05/06 03:30:14;;;;;;;;;;;9.10;99.90;;;;;;5100006;27;19930;-75
2023/05/06 03:32:39;;;;;;;;;;;9.10;99.90;;;;;;5116258;27;19927;-75
2023/05/06 03:35:07;;;;;;;;;;;9.00;99.90;;;;;;5114763;27;20022;-75
2023/05/06 03:37:32;;;;;;;;;;;9.10;99.90;;;;;;5095055;27;19932;-75
2023/05/06 03:39:59;;;;;;;;;;;9.10;99.90;;;;;;5120877;27;19927;-75
2023/05/06 03:42:25;;;;;;;;;;;9.30;99.90;;;;;;5092810;27;19928;-75
2023/05/06 03:44:50;;;;;;;;;;;9.20;99.90;;;;;;5091799;27;20446;-75
2023/05/06 03:47:16;;;;;;;;;;;9.20;99.90;;;;;;5116836;27;20347;-75
2023/05/06 03:49:41;;;;;;;;;;;9.20;99.90;;;;;;5116805;27;20221;-75
2023/05/06 03:52:07;;;;;;;;;;;9.20;99.90;;;;;;5112289;27;20022;-75
2023/05/06 03:54:32;;;;;;;;;;;9.30;99.90;;;;;;5117826;27;20260;-75
2023/05/06 03:56:58;;;;;;;;;;;9.30;99.90;;;;;;5109202;27;20312;-75
2023/05/06 03:59:24;;;;;;;;;;;9.30;99.90;;;;;;5110748;27;20020;-73
2023/05/06 04:01:49;;;;;;;;;;;9.20;99.90;;;;;;5108912;27;19939;-75
2023/05/06 04:04:15;;;;;;;;;;;9.00;99.90;;;;;;5094337;28;20006;-75
2023/05/06 04:06:40;;;;;;;;;;;8.80;99.90;;;;;;5112007;27;20010;-75
2023/05/06 04:09:06;;;;;;;;;;;8.80;99.90;;;;;;5116650;27;20409;-75
2023/05/06 04:11:32;;;;;;;;;;;8.90;99.90;;;;;;5114627;27;19932;-75
2023/05/06 04:13:57;;;;;;;;;;;9.00;99.90;;;;;;5097288;28;19931;-76
2023/05/06 04:16:23;;;;;;;;;;;9.10;99.90;;;;;;5097770;28;20333;-75
2023/05/06 04:18:50;;;;;;;;;;;9.30;99.90;;;;;;5115346;27;20008;-76
2023/05/06 04:21:17;;;;;;;;;;;9.30;99.90;;;;;;5095894;28;19938;-76
2023/05/06 04:23:43;;;;;;;;;;;9.20;99.90;;;;;;5116032;27;22243;-76
2023/05/06 04:26:09;;;;;;;;;;;9.50;99.90;;;;;;5113660;28;20011;-75
2023/05/06 04:28:34;;;;;;;;;;;9.60;99.90;;;;;;5096877;28;20260;-75
2023/05/06 04:31:01;;;;;;;;;;;9.70;99.90;;;;;;5117274;27;19980;-75
2023/05/06 04:33:27;;;;;;;;;;;9.70;99.90;;;;;;5116438;27;19927;-75
2023/05/06 04:35:52;;;;;;;;;;;9.80;99.90;;;;;;5116225;27;19949;-75
2023/05/06 04:38:19;;;;;;;;;;;9.70;99.90;;;;;;5121549;27;19935;-75
2023/05/06 04:40:44;;;;;;;;;;;9.60;99.90;;;;;;5119430;27;20319;-75
2023/05/06 04:43:11;;;;;;;;;;;9.40;99.90;;;;;;5113817;27;19932;-75
2023/05/06 04:45:36;;;;;;;;;;;9.40;99.90;;;;;;5117546;27;20437;-76
2023/05/06 04:48:02;;;;;;;;;;;9.50;99.90;;;;;;5115655;27;19935;-75
2023/05/06 04:50:27;;;;;;;;;;;9.50;99.90;;;;;;5119347;27;20021;-75
2023/05/06 04:52:53;;;;;;;;;;;9.60;99.90;;;;;;5112497;28;19976;-75
2023/05/06 04:55:18;;;;;;;;;;;9.70;99.90;;;;;;5118229;27;20530;-75
2023/05/06 04:57:44;;;;;;;;;;;9.90;99.90;;;;;;5096416;28;20429;-75
2023/05/06 05:00:10;;;;;;;;;;;9.90;99.90;;;;;;5116378;27;20334;-75
2023/05/06 05:02:35;;;;;;;;;;;9.90;99.90;;;;;;5078081;28;20027;-75
2023/05/06 05:05:01;;;;;;;;;;;9.90;99.90;;;;;;5114026;27;19934;-76
2023/05/06 05:07:27;;;;;;;;;;;10.10;99.90;;;;;;5114501;27;19971;-75
2023/05/06 05:09:52;;;;;;;;;;;10.10;99.90;;;;;;5118163;27;19923;-75
2023/05/06 05:12:18;;;;;;;;;;;10.00;99.90;;;;;;5095852;27;19928;-76
2023/05/06 05:14:43;;;;;;;;;;;10.20;99.90;;;;;;5124073;27;19930;-76
2023/05/06 05:17:09;;;;;;;;;;;10.50;99.90;;;;;;5120852;27;20058;-76
2023/05/06 05:19:34;;;;;;;;;;;10.70;99.90;;;;;;5102260;27;19932;-75
2023/05/06 05:22:00;;;;;;;;;;;10.70;99.90;;;;;;5099149;27;19931;-75
2023/05/06 05:24:26;;;;;;;;;;;10.80;99.90;;;;;;5101141;27;20426;-75
2023/05/06 05:26:51;;;;;;;;;;;10.90;99.90;;;;;;5099555;27;19928;-76
2023/05/06 05:29:17;;;;;;;;;;;11.30;99.90;;;;;;5120864;27;20409;-76
2023/05/06 05:31:42;;;;;;;;;;;11.60;99.90;;;;;;5118781;27;19927;-75
2023/05/06 05:34:08;;;;;;;;;;;12.10;99.90;;;;;;5117476;27;19978;-75
2023/05/06 05:36:33;;;;;;;;;;;12.40;99.90;;;;;;5083288;27;19995;-75
2023/05/06 05:38:59;;;;;;;;;;;11.90;99.90;;;;;;5101435;27;20052;-75
2023/05/06 05:41:25;;;;;;;;;;;12.10;99.90;;;;;;5093384;27;19960;-75
2023/05/06 05:43:51;;;;;;;;;;;12.10;99.90;;;;;;5117204;27;19931;-75
2023/05/06 05:46:16;;;;;;;;;;;12.40;99.90;;;;;;5117141;27;19923;-75
2023/05/06 05:48:42;;;;;;;;;;;12.40;99.90;;;;;;5120704;27;20022;-75
2023/05/06 05:51:08;;;;;;;;;;;12.50;99.90;;;;;;5116522;27;20414;-75
2023/05/06 05:53:34;;;;;;;;;;;12.70;99.90;;;;;;5112509;27;19927;-75
2023/05/06 05:56:00;;;;;;;;;;;12.80;99.90;;;;;;5109934;27;19931;-76
2023/05/06 05:58:25;;;;;;;;;;;13.00;99.90;;;;;;5107524;27;19997;-75
2023/05/06 06:00:51;;;;;;;;;;;12.90;99.90;;;;;;5089212;27;19946;-76
2023/05/06 06:03:17;;;;;;;;;;;13.60;99.90;;;;;;5070149;27;19927;-75
2023/05/06 06:05:44;;;;;;;;;;;14.30;99.90;;;;;;5101622;27;20281;-76
2023/05/06 06:08:10;;;;;;;;;;;14.30;99.90;;;;;;5089116;27;19959;-76
2023/05/06 06:10:35;;;;;;;;;;;15.00;99.90;;;;;;5108409;27;20288;-76
2023/05/06 06:13:01;;;;;;;;;;;15.60;99.90;;;;;;5092924;27;19924;-76
2023/05/06 06:15:28;;;;;;;;;;;15.60;99.90;;;;;;5120985;27;20584;-77
2023/05/06 06:17:53;;;;;;;;;;;15.60;99.90;;;;;;5119305;27;19938;-76
2023/05/06 06:20:19;;;;;;;;;;;15.70;99.90;;;;;;5118873;27;19927;-77
2023/05/06 06:22:45;;;;;;;;;;;16.00;99.90;;;;;;5097170;27;19935;-76
2023/05/06 06:25:10;;;;;;;;;;;16.40;99.90;;;;;;5113408;27;19932;-77
2023/05/06 06:27:36;;;;;;;;;;;16.80;99.90;;;;;;5116241;27;19949;-77
2023/05/06 06:30:02;;;;;;;;;;;15.50;99.90;;;;;;5117304;27;19934;-77
2023/05/06 06:32:28;;;;;;;;;;;15.10;99.90;;;;;;5114713;27;19927;-76
2023/05/06 06:34:53;;;;;;;;;;;16.10;99.90;;;;;;5117627;27;19950;-77
2023/05/06 06:37:19;;;;;;;;;;;16.20;99.90;;;;;;5097154;27;19927;-76
2023/05/06 06:39:44;;;;;;;;;;;16.40;99.90;;;;;;5118110;27;19975;-76
2023/05/06 06:42:10;;;;;;;;;;;17.10;99.90;;;;;;5116565;27;19931;-76
2023/05/06 06:44:36;;;;;;;;;;;17.30;99.90;;;;;;5116648;27;20454;-76
2023/05/06 06:47:02;;;;;;;;;;;17.60;99.90;;;;;;5082041;27;19931;-77
2023/05/06 06:49:27;;;;;;;;;;;17.90;99.90;;;;;;5103299;27;19934;-77
2023/05/06 06:51:55;;;;;;;;;;;17.40;99.90;;;;;;5117733;27;19923;-77
2023/05/06 06:54:21;;;;;;;;;;;17.10;99.90;;;;;;5120190;27;20384;-77
2023/05/06 06:56:47;;;;;;;;;;;17.90;99.90;;;;;;5098519;27;19958;-76
2023/05/06 06:59:12;;;;;;;;;;;18.20;99.90;;;;;;5116775;27;19927;-77
2023/05/06 07:01:39;;;;;;;;;;;18.40;99.90;;;;;;5114846;27;19923;-77
2023/05/06 07:04:05;;;;;;;;;;;18.10;99.90;;;;;;5114596;27;20316;-77
2023/05/06 07:06:30;;;;;;;;;;;18.20;99.90;;;;;;5116762;27;19928;-77
2023/05/06 07:08:56;;;;;;;;;;;17.50;99.90;;;;;;5119056;27;20427;-77
2023/05/06 07:11:21;;;;;;;;;;;17.10;99.90;;;;;;5118515;27;20307;-77
2023/05/06 07:13:47;;;;;;;;;;;18.20;99.90;;;;;;5095963;27;20865;-77
2023/05/06 07:16:12;;;;;;;;;;;18.30;99.90;;;;;;5097330;27;20269;-77
2023/05/06 07:18:38;;;;;;;;;;;18.50;99.90;;;;;;5116094;27;20492;-77
2023/05/06 07:21:03;;;;;;;;;;;18.60;99.90;;;;;;5097558;27;19954;-77
2023/05/06 07:23:29;;;;;;;;;;;18.20;99.90;;;;;;5109775;27;20010;-77
2023/05/06 07:25:54;;;;;;;;;;;18.70;99.90;;;;;;5116433;27;19927;-78
2023/05/06 07:28:20;;;;;;;;;;;19.00;99.90;;;;;;5117531;27;19930;-77
2023/05/06 07:30:45;;;;;;;;;;;19.40;99.90;;;;;;5098103;27;19923;-77
2023/05/06 07:33:11;;;;;;;;;;;18.20;99.90;;;;;;5112578;27;19931;-78
2023/05/06 07:35:37;;;;;;;;;;;19.00;99.90;;;;;;5112175;27;19924;-76
2023/05/06 07:38:02;;;;;;;;;;;19.60;99.90;;;;;;5095849;27;20525;-78
2023/05/06 07:40:28;;;;;;;;;;;18.90;99.90;;;;;;5115321;27;19928;-77
2023/05/06 07:42:54;;;;;;;;;;;18.60;99.90;;;;;;5115973;27;20511;-77
2023/05/06 07:45:22;;;;;;;;;;;18.10;99.90;;;;;;5115626;27;19931;-78
2023/05/06 07:47:47;;;;;;;;;;;17.70;99.90;;;;;;5113082;27;20292;-77
2023/05/06 07:50:13;;;;;;;;;;;18.40;99.90;;;;;;5118874;27;19923;-78
2023/05/06 07:52:39;;;;;;;;;;;18.80;99.90;;;;;;5116173;27;19938;-78
2023/05/06 07:55:04;;;;;;;;;;;18.90;99.90;;;;;;5117018;27;20432;-77
2023/05/06 07:57:30;;;;;;;;;;;19.60;99.90;;;;;;5114451;27;20396;-77
2023/05/06 07:59:57;;;;;;;;;;;19.80;99.90;;;;;;5094662;28;20022;-78
2023/05/06 08:02:23;;;;;;;;;;;20.30;99.90;;;;;;5112948;27;19944;-77
2023/05/06 08:04:48;;;;;;;;;;;20.20;99.90;;;;;;5103050;27;20001;-78
2023/05/06 08:07:14;;;;;;;;;;;20.60;99.90;;;;;;5102175;27;20369;-78
2023/05/06 08:09:40;;;;;;;;;;;20.60;99.90;;;;;;5106196;27;20010;-78
2023/05/06 08:12:06;;;;;;;;;;;20.90;99.90;;;;;;5113797;27;20810;-78
2023/05/06 08:14:31;;;;;;;;;;;21.10;99.90;;;;;;5112819;27;20026;-77
2023/05/06 08:16:57;;;;;;;;;;;20.80;99.90;;;;;;5110098;27;19924;-79
2023/05/06 08:19:23;;;;;;;;;;;20.20;99.90;;;;;;5118004;27;20376;-77
2023/05/06 08:21:49;;;;;;;;;;;20.30;99.90;;;;;;5108628;27;19931;-78
2023/05/06 08:24:14;;;;;;;;;;;20.70;99.90;;;;;;5097910;28;20395;-78
2023/05/06 08:26:40;;;;;;;;;;;21.30;99.90;;;;;;5094308;28;19927;-78
2023/05/06 08:29:08;;;;;;;;;;;21.60;99.90;;;;;;5117142;27;19931;-77
2023/05/06 08:31:34;;;;;;;;;;;21.60;99.90;;;;;;5098899;28;20488;-78
2023/05/06 08:34:00;;;;;;;;;;;21.70;99.90;;;;;;5092409;27;19927;-78
2023/05/06 08:36:26;;;;;;;;;;;21.30;99.90;;;;;;5114676;27;19960;-79
2023/05/06 08:38:51;;;;;;;;;;;21.10;99.90;;;;;;5114030;28;19927;-78
2023/05/06 08:41:18;;;;;;;;;;;21.30;99.90;;;;;;5096065;28;19927;-80
2023/05/06 08:43:44;;;;;;;;;;;21.20;99.90;;;;;;5111448;27;19966;-78
2023/05/06 08:46:10;;;;;;;;;;;22.20;99.90;;;;;;5094600;28;19931;-79
2023/05/06 08:48:36;;;;;;;;;;;21.90;99.90;;;;;;5101958;27;19932;-77
2023/05/06 08:51:02;;;;;;;;;;;21.40;99.90;;;;;;5121488;27;19928;-79
2023/05/06 08:53:28;;;;;;;;;;;21.60;99.90;;;;;;5116159;27;20272;-78
2023/05/06 08:55:56;;;;;;;;;;;21.50;99.90;;;;;;5100223;27;19949;-79
2023/05/06 08:58:23;;;;;;;;;;;21.50;99.90;;;;;;5120379;27;19927;-79
2023/05/06 09:00:48;;;;;;;;;;;21.50;99.90;;;;;;5117894;27;19927;-79
2023/05/06 09:03:14;;;;;;;;;;;21.20;99.90;;;;;;5121603;27;20288;-79
2023/05/06 09:05:40;;;;;;;;;;;21.60;99.90;;;;;;5101179;27;20172;-82
2023/05/06 09:08:05;;;;;;;;;;;21.80;99.90;;;;;;5120693;27;20333;-79
2023/05/06 09:10:32;;;;;;;;;;;22.30;99.90;;;;;;5099163;27;19924;-79
2023/05/06 09:12:57;;;;;;;;;;;22.10;99.90;;;;;;5098656;27;19927;-78
2023/05/06 09:15:24;;;;;;;;;;;22.30;99.90;;;;;;5117566;27;20454;-79
2023/05/06 09:17:50;;;;;;;;;;;22.10;99.90;;;;;;5122384;27;19931;-80
2023/05/06 09:20:16;;;;;;;;;;;22.20;99.90;;;;;;5122262;27;19934;-79
2023/05/06 09:22:42;;;;;;;;;;;21.60;99.90;;;;;;5101082;27;19932;-79
2023/05/06 09:25:08;;;;;;;;;;;22.20;99.90;;;;;;5118327;27;19982;-78
2023/05/06 09:27:35;;;;;;;;;;;22.00;99.90;;;;;;5118946;27;19931;-79
2023/05/06 09:30:04;;;;;;;;;;;22.60;99.90;;;;;;5113996;27;19982;-79
2023/05/06 09:32:30;;;;;;;;;;;22.70;99.90;;;;;;5111253;27;19939;-80
2023/05/06 09:34:56;;;;;;;;;;;22.30;99.90;;;;;;5121159;27;19923;-79
2023/05/06 09:37:22;;;;;;;;;;;22.70;99.90;;;;;;5098596;27;19992;-78
2023/05/06 09:39:47;;;;;;;;;;;23.00;99.90;;;;;;5116471;27;20053;-78
2023/05/06 09:42:13;;;;;;;;;;;22.50;99.90;;;;;;5114098;27;19935;-79
2023/05/06 09:44:38;;;;;;;;;;;22.80;99.90;;;;;;5095917;27;19923;-79
2023/05/06 09:47:04;;;;;;;;;;;23.20;99.90;;;;;;5097905;27;19984;-78
2023/05/06 09:49:30;;;;;;;;;;;21.90;99.90;;;;;;5118221;27;20014;-80
2023/05/06 09:51:56;;;;;;;;;;;22.30;99.90;;;;;;5119415;27;20830;-79
2023/05/06 09:54:22;;;;;;;;;;;22.60;99.90;;;;;;5119710;27;20439;-78
2023/05/06 09:56:49;;;;;;;;;;;23.00;99.90;;;;;;5116000;27;20689;-78
2023/05/06 09:59:17;;;;;;;;;;;23.40;99.90;;;;;;5100168;27;19970;-80
2023/05/06 10:01:43;;;;;;;;;;;22.20;99.90;;;;;;5079107;27;20406;-80
2023/05/06 10:04:11;;;;;;;;;;;22.10;99.90;;;;;;5093103;27;20081;-79
2023/05/06 10:06:39;;;;;;;;;;;22.30;99.90;;;;;;5117025;27;19927;-78
2023/05/06 10:09:06;;;;;;;;;;;22.90;99.90;;;;;;5115878;27;19958;-79
2023/05/06 10:11:32;;;;;;;;;;;22.40;99.90;;;;;;5097439;27;19960;-79
2023/05/06 10:13:59;;;;;;;;;;;21.10;99.90;;;;;;5118615;27;19927;-78
2023/05/06 10:16:24;;;;;;;;;;;21.70;99.90;;;;;;5117830;27;19927;-78
2023/05/06 10:18:53;;;;;;;;;;;22.00;99.90;;;;;;5113614;27;20431;-80
2023/05/06 10:21:20;;;;;;;;;;;22.50;99.90;;;;;;5113195;27;19923;-79
2023/05/06 10:23:50;;;;;;;;;;;22.60;99.90;;;;;;5113667;27;20060;-78
2023/05/06 10:26:18;;;;;;;;;;;22.20;99.90;;;;;;5093528;27;19970;-78
2023/05/06 10:28:45;;;;;;;;;;;21.60;99.90;;;;;;5100145;27;19932;-79
2023/05/06 10:31:12;;;;;;;;;;;21.60;99.90;;;;;;5099119;27;19931;-78
2023/05/06 10:33:39;;;;;;;;;;;21.50;99.90;;;;;;5111196;27;20277;-79
2023/05/06 10:36:20;;;;;;;;;;;22.00;99.90;;;;;;5099351;27;20431;-78
2023/05/06 10:38:48;;;;;;;;;;;21.70;99.90;;;;;;5109701;27;20413;-79
2023/05/06 10:41:14;;;;;;;;;;;21.60;99.90;;;;;;5096016;27;19924;-77
2023/05/06 10:43:41;;;;;;;;;;;22.30;99.90;;;;;;5094754;27;19938;-78
2023/05/06 10:46:10;;;;;;;;;;;22.70;99.90;;;;;;5114418;27;19937;-78
2023/05/06 10:48:37;;;;;;;;;;;22.50;99.90;;;;;;5098009;27;19989;-79
2023/05/06 10:51:15;;;;;;;;;;;22.80;99.90;;;;;;5115941;27;19924;-78
2023/05/06 10:54:01;;;;;;;;;;;23.00;99.90;;;;;;5114571;27;20392;-78
2023/05/06 10:56:27;;;;;;;;;;;23.70;99.90;;;;;;5090234;27;19931;-78
2023/05/06 10:58:54;;;;;;;;;;;24.00;99.90;;;;;;5099490;27;20431;-80
2023/05/06 11:01:29;;;;;;;;;;;23.80;99.90;;;;;;5095681;27;19938;-80
2023/05/06 11:03:54;;;;;;;;;;;23.60;99.90;;;;;;5119227;27;19942;-78
2023/05/06 11:06:40;;;;;;;;;;;23.40;99.90;;;;;;5095098;27;19928;-79
2023/05/06 11:09:15;;;;;;;;;;;23.30;99.90;;;;;;5110663;27;20276;-79
2023/05/06 11:11:46;;;;;;;;;;;23.00;99.90;;;;;;5092803;27;19931;-79
2023/05/06 11:14:12;;;;;;;;;;;22.60;99.90;;;;;;5116899;27;19928;-78
2023/05/06 11:16:47;;;;;;;;;;;22.60;99.90;;;;;;5117885;27;19934;-78
2023/05/06 11:19:18;;;;;;;;;;;23.00;99.90;;;;;;5111512;27;19962;-79
2023/05/06 11:21:43;;;;;;;;;;;23.00;99.90;;;;;;5108866;27;20503;-79
2023/05/06 11:24:10;;;;;;;;;;;22.10;99.90;;;;;;5113630;27;20041;-78
2023/05/06 11:26:35;;;;;;;;;;;22.20;99.90;;;;;;5109888;27;19971;-78
2023/05/06 11:29:01;;;;;;;;;;;22.30;99.90;;;;;;5097473;27;19962;-77
2023/05/06 11:31:28;;;;;;;;;;;22.10;99.90;;;;;;5112915;27;19946;-79
2023/05/06 11:33:56;;;;;;;;;;;22.10;99.90;;;;;;5098254;27;20341;-79
2023/05/06 11:36:22;;;;;;;;;;;20.70;99.90;;;;;;5116117;27;20580;-79
2023/05/06 11:38:48;;;;;;;;;;;20.00;99.90;;;;;;5096572;27;19928;-79
2023/05/06 11:41:14;;;;;;;;;;;20.60;99.90;;;;;;5110192;27;20629;-79
2023/05/06 11:43:44;;;;;;;;;;;20.80;99.90;;;;;;5113756;27;19938;-79
2023/05/06 11:46:10;;;;;;;;;;;20.80;99.90;;;;;;5109666;27;19934;-78
2023/05/06 11:48:36;;;;;;;;;;;20.70;99.90;;;;;;5120544;27;20608;-78
2023/05/06 11:51:01;;;;;;;;;;;20.70;99.90;;;;;;5111684;27;20351;-79
2023/05/06 11:53:28;;;;;;;;;;;20.80;99.90;;;;;;5100153;27;19942;-78
2023/05/06 11:55:54;;;;;;;;;;;20.60;99.90;;;;;;5096204;27;20010;-79
2023/05/06 11:58:27;;;;;;;;;;;19.90;99.90;;;;;;5117713;27;20025;-79
2023/05/06 12:00:57;;;;;;;;;;;19.90;99.90;;;;;;5113605;27;19928;-79
2023/05/06 12:03:24;;;;;;;;;;;19.20;99.90;;;;;;5119181;27;19932;-79
2023/05/06 12:05:50;;;;;;;;;;;19.20;99.90;;;;;;5095051;28;20024;-79
2023/05/06 12:08:18;;;;;;;;;;;19.20;99.90;;;;;;5115150;27;20356;-79
2023/05/06 12:10:44;;;;;;;;;;;18.90;99.90;;;;;;5099476;28;19974;-78
2023/05/06 12:13:10;;;;;;;;;;;18.50;99.90;;;;;;5116634;28;20005;-77
2023/05/06 12:15:35;;;;;;;;;;;18.40;99.90;;;;;;5118705;28;20476;-77
2023/05/06 12:18:01;;;;;;;;;;;18.40;99.90;;;;;;5116078;28;20293;-77
2023/05/06 12:20:27;;;;;;;;;;;18.50;99.90;;;;;;5116644;27;19989;-78
2023/05/06 12:23:05;;;;;;;;;;;18.40;99.90;;;;;;5113926;27;19935;-77
2023/05/06 12:25:31;;;;;;;;;;;18.30;99.90;;;;;;5115721;27;19934;-77
2023/05/06 12:27:57;;;;;;;;;;;17.90;99.90;;;;;;5121543;27;19927;-78
2023/05/06 12:30:40;;;;;;;;;;;17.90;99.90;;;;;;5122939;27;20010;-77
2023/05/06 12:33:07;;;;;;;;;;;17.90;99.90;;;;;;5113806;27;19932;-77
2023/05/06 12:35:32;;;;;;;;;;;18.00;99.90;;;;;;5122389;27;19924;-77
2023/05/06 12:38:11;;;;;;;;;;;17.90;99.90;;;;;;5118751;27;20062;-78
2023/05/06 12:40:37;;;;;;;;;;;17.80;99.90;;;;;;5089356;27;19927;-77
2023/05/06 12:43:03;;;;;;;;;;;18.00;99.90;;;;;;5092965;27;19939;-77
2023/05/06 12:45:29;;;;;;;;;;;17.90;99.90;;;;;;5108688;27;19977;-77
2023/05/06 12:47:55;;;;;;;;;;;18.60;99.90;;;;;;5096722;27;19928;-77
2023/05/06 12:50:40;;;;;;;;;;;18.70;99.90;;;;;;5111362;27;19934;-78
2023/05/06 12:53:07;;;;;;;;;;;18.70;99.90;;;;;;5118703;27;20014;-77
2023/05/06 12:55:34;;;;;;;;;;;19.00;99.90;;;;;;5096697;27;20438;-77
2023/05/06 12:58:01;;;;;;;;;;;19.50;99.90;;;;;;5110251;27;19988;-77
2023/05/06 13:00:27;;;;;;;;;;;19.70;99.90;;;;;;5115666;27;20303;-77
2023/05/06 13:02:53;;;;;;;;;;;20.80;99.90;;;;;;5116356;27;19969;-78
2023/05/06 13:05:18;;;;;;;;;;;21.70;99.90;;;;;;5115039;27;19927;-77
2023/05/06 13:07:44;;;;;;;;;;;22.10;99.90;;;;;;5100445;27;19985;-77
2023/05/06 13:10:10;;;;;;;;;;;22.30;99.90;;;;;;5111087;27;20479;-79
2023/05/06 13:12:35;;;;;;;;;;;22.50;99.90;;;;;;5110261;27;19988;-77
2023/05/06 13:15:01;;;;;;;;;;;22.40;99.90;;;;;;5114357;27;20021;-78
2023/05/06 13:17:27;;;;;;;;;;;22.80;99.90;;;;;;5096721;27;20018;-79
2023/05/06 13:19:53;;;;;;;;;;;23.10;99.90;;;;;;5115565;27;19958;-78
2023/05/06 13:22:19;;;;;;;;;;;22.60;99.90;;;;;;5094125;27;20018;-79
2023/05/06 13:24:44;;;;;;;;;;;22.80;99.90;;;;;;5105646;27;19987;-79
2023/05/06 13:27:10;;;;;;;;;;;22.20;99.90;;;;;;5097756;27;19934;-78
2023/05/06 13:29:36;;;;;;;;;;;21.50;99.90;;;;;;5115970;27;19927;-79
2023/05/06 13:32:02;;;;;;;;;;;22.00;99.90;;;;;;5116221;27;19928;-79
2023/05/06 13:34:28;;;;;;;;;;;22.20;99.90;;;;;;5094861;27;19927;-77
2023/05/06 13:36:55;;;;;;;;;;;22.30;99.90;;;;;;5111535;27;19950;-79
2023/05/06 13:39:21;;;;;;;;;;;22.70;99.90;;;;;;5100893;27;20287;-79
2023/05/06 13:41:48;;;;;;;;;;;22.50;99.90;;;;;;5101694;27;19939;-78
2023/05/06 13:44:14;;;;;;;;;;;22.60;99.90;;;;;;5108212;27;19935;-79
2023/05/06 13:46:40;;;;;;;;;;;22.70;99.90;;;;;;5107460;27;19931;-81
2023/05/06 13:49:06;;;;;;;;;;;22.60;99.90;;;;;;5114753;27;20402;-79
2023/05/06 13:51:33;;;;;;;;;;;22.30;99.90;;;;;;5108180;27;19924;-79
2023/05/06 13:53:59;;;;;;;;;;;22.30;99.90;;;;;;5113369;27;19924;-79
2023/05/06 13:56:25;;;;;;;;;;;21.40;99.90;;;;;;5106876;27;20090;-79
2023/05/06 13:58:52;;;;;;;;;;;21.90;99.90;;;;;;5105854;27;20415;-79
2023/05/06 14:01:20;;;;;;;;;;;21.90;99.90;;;;;;5109682;27;19978;-78
2023/05/06 14:03:46;;;;;;;;;;;21.90;99.90;;;;;;5104346;27;19928;-80
2023/05/06 14:06:11;;;;;;;;;;;21.80;99.90;;;;;;5114211;27;19955;-79
2023/05/06 14:08:37;;;;;;;;;;;22.30;99.90;;;;;;5117083;27;19942;-78
2023/05/06 14:11:03;;;;;;;;;;;22.30;99.90;;;;;;5115514;27;20643;-79
2023/05/06 14:13:29;;;;;;;;;;;22.10;99.90;;;;;;5097565;27;19923;-79
2023/05/06 14:15:55;;;;;;;;;;;21.60;99.90;;;;;;5109393;27;20018;-81